Time;durP1;ratioP1;P1;durP2;ratioP2;P2;SDS_P1;SDS_P2;PMS_P1;PMS_P2;Temp;Humidity;BMP_temperature;BMP_pressure;BME280_temperature;BME280_humidity;BME280_pressure;Samples;Min_cycle;Max_cycle;Signal;HPM_P1;HPM_P2
2024/01/12 00:02:22;;;;;;;9.85;5.57;;;;;;;0.67;60.04;99586.50;5071717;28;20453;-26
2024/01/12 00:04:47;;;;;;;11.30;5.45;;;;;;;0.74;61.49;99593.63;5071474;28;20139;-26
2024/01/12 00:07:13;;;;;;;10.05;5.68;;;;;;;0.71;61.08;99591.28;5071716;28;20084;-25
2024/01/12 00:09:38;;;;;;;8.88;5.28;;;;;;;0.43;62.40;99589.59;5072465;28;20310;-28
2024/01/12 00:12:04;;;;;;;10.82;4.80;;;;;;;0.45;62.70;99585.84;5072413;28;20028;-26
2024/01/12 00:14:29;;;;;;;12.00;5.50;;;;;;;0.37;62.76;99586.56;5072189;28;20494;-26
2024/01/12 00:16:54;;;;;;;9.13;5.22;;;;;;;0.06;62.68;99577.25;5071712;28;20067;-25
2024/01/12 00:19:20;;;;;;;14.32;6.03;;;;;;;0.64;61.97;99592.84;5071997;28;20032;-26
2024/01/12 00:21:46;;;;;;;12.68;5.60;;;;;;;0.58;60.88;99594.22;5071636;28;20390;-26
2024/01/12 00:24:11;;;;;;;13.85;5.93;;;;;;;0.66;61.49;99592.69;5072033;28;20428;-38
2024/01/12 00:26:37;;;;;;;11.77;5.65;;;;;;;0.81;60.63;99603.53;5071536;28;20028;-39
2024/01/12 00:29:02;;;;;;;11.32;5.50;;;;;;;0.78;60.81;99600.25;5071509;28;20032;-36
2024/01/12 00:31:27;;;;;;;9.82;5.15;;;;;;;0.62;60.66;99602.63;5071411;28;20028;-39
2024/01/12 00:33:53;;;;;;;10.50;5.60;;;;;;;0.71;60.45;99606.19;5071526;28;20399;-39
2024/01/12 00:36:19;;;;;;;11.05;5.28;;;;;;;0.64;61.47;99592.00;5071116;28;20025;-39
2024/01/12 00:38:44;;;;;;;9.25;4.72;;;;;;;0.75;60.69;99592.66;5071189;28;20099;-37
2024/01/12 00:41:09;;;;;;;8.88;5.40;;;;;;;1.01;59.92;99602.50;5071399;28;20055;-39
2024/01/12 00:43:35;;;;;;;10.30;5.93;;;;;;;1.05;58.94;99605.63;5071094;28;20138;-39
2024/01/12 00:46:02;;;;;;;7.22;4.75;;;;;;;0.69;60.19;99606.34;5071098;28;20042;-39
2024/01/12 00:48:27;;;;;;;11.27;5.90;;;;;;;0.68;60.42;99601.22;5070693;28;20029;-38
2024/01/12 00:50:53;;;;;;;9.77;5.63;;;;;;;0.66;59.61;99597.94;5070741;28;20043;-39
2024/01/12 00:53:18;;;;;;;11.88;5.63;;;;;;;0.64;60.71;99595.44;5070686;28;20066;-39
2024/01/12 00:55:44;;;;;;;9.70;5.50;;;;;;;1.01;60.29;99602.50;5070855;28;20024;-40
2024/01/12 00:58:09;;;;;;;9.15;5.32;;;;;;;0.63;59.51;99595.59;5070674;28;20029;-40
2024/01/12 01:00:34;;;;;;;11.93;5.90;;;;;;;0.59;59.33;99602.91;5070821;28;20504;-39
2024/01/12 01:03:02;;;;;;;10.65;5.22;;;;;;;0.43;59.17;99610.53;5070488;28;20039;-39
2024/01/12 01:05:28;;;;;;;9.10;5.40;;;;;;;0.44;58.44;99606.94;5070930;28;20052;-27
2024/01/12 01:07:53;;;;;;;10.65;5.60;;;;;;;0.48;57.25;99603.09;5070723;28;20056;-26
2024/01/12 01:10:18;;;;;;;10.35;5.20;;;;;;;0.69;56.96;99616.00;5070183;28;20040;-26
2024/01/12 01:12:44;;;;;;;10.57;5.55;;;;;;;0.51;56.71;99611.47;5070478;28;20032;-26
2024/01/12 01:15:11;;;;;;;9.77;5.40;;;;;;;0.60;55.89;99603.75;5070890;28;20046;-26
2024/01/12 01:17:37;;;;;;;9.15;5.22;;;;;;;0.21;56.34;99617.75;5070691;28;20341;-26
2024/01/12 01:20:03;;;;;;;8.75;5.00;;;;;;;0.23;55.37;99610.59;5070695;28;20035;-26
2024/01/12 01:22:31;;;;;;;10.60;5.50;;;;;;;0.48;55.59;99613.56;5070583;28;20025;-25
2024/01/12 01:24:56;;;;;;;12.35;5.82;;;;;;;0.53;55.06;99619.19;5070453;28;20400;-25
2024/01/12 01:27:22;;;;;;;10.85;5.40;;;;;;;0.78;54.44;99630.81;5070606;28;20029;-26
2024/01/12 01:29:47;;;;;;;9.75;5.03;;;;;;;0.58;54.29;99628.28;5070549;28;20491;-25
2024/01/12 01:32:13;;;;;;;11.50;5.75;;;;;;;0.18;55.40;99628.50;5070377;28;20025;-25
2024/01/12 01:34:38;;;;;;;8.43;4.68;;;;;;;0.17;55.48;99619.81;5070016;28;20115;-26
2024/01/12 01:37:04;;;;;;;9.65;4.82;;;;;;;-0.13;54.69;99605.09;5070334;28;20616;-25
2024/01/12 01:39:30;;;;;;;10.55;5.32;;;;;;;0.24;53.62;99601.75;5070634;28;20024;-25
2024/01/12 01:41:56;;;;;;;12.02;5.22;;;;;;;0.09;54.65;99592.69;5070389;28;20096;-25
2024/01/12 01:44:21;;;;;;;8.98;3.85;;;;;;;-0.09;53.50;99582.09;5070422;28;20048;-25
2024/01/12 01:46:47;;;;;;;6.65;4.03;;;;;;;-0.02;53.14;99578.78;5070435;28;20039;-25
2024/01/12 01:49:12;;;;;;;11.73;5.47;;;;;;;0.19;54.68;99580.41;5070224;28;20031;-26
2024/01/12 01:51:38;;;;;;;11.85;4.93;;;;;;;0.10;52.86;99560.31;5070342;28;20036;-25
2024/01/12 01:54:03;;;;;;;8.38;4.72;;;;;;;0.08;53.48;99575.34;5070056;28;20040;-25
2024/01/12 01:56:29;;;;;;;8.00;4.90;;;;;;;-0.16;53.93;99573.97;5070028;28;20024;-25
2024/01/12 01:58:55;;;;;;;10.60;4.97;;;;;;;0.08;53.10;99565.69;5070158;28;20710;-26
2024/01/12 02:01:21;;;;;;;8.95;4.72;;;;;;;0.21;52.48;99570.63;5070288;28;20025;-25
2024/01/12 02:03:48;;;;;;;11.63;5.25;;;;;;;-0.02;53.11;99555.25;5070315;28;20138;-25
2024/01/12 02:06:14;;;;;;;9.55;4.40;;;;;;;0.10;53.17;99569.00;5070222;28;20115;-26
2024/01/12 02:08:40;;;;;;;8.77;5.13;;;;;;;0.65;51.04;99562.22;5069762;28;20472;-25
2024/01/12 02:11:05;;;;;;;9.07;4.97;;;;;;;0.54;52.51;99561.44;5070049;28;20028;-26
2024/01/12 02:13:31;;;;;;;9.98;5.25;;;;;;;0.38;52.34;99550.72;5070005;28;20056;-24
2024/01/12 02:15:56;;;;;;;10.20;4.93;;;;;;;0.51;52.05;99546.00;5069961;28;20072;-25
2024/01/12 02:18:22;;;;;;;7.28;4.40;;;;;;;0.71;50.09;99552.00;5069899;28;20089;-25
2024/01/12 02:20:48;;;;;;;10.18;4.65;;;;;;;0.86;50.96;99557.59;5070251;28;20059;-24
2024/01/12 02:23:14;;;;;;;9.18;4.90;;;;;;;0.45;52.49;99540.53;5073776;28;20099;-24
2024/01/12 02:25:44;;;;;;;10.73;4.78;;;;;;;0.78;52.25;99539.13;5073892;28;20016;-26
2024/01/12 02:28:11;;;;;;;8.13;4.60;;;;;;;0.94;52.80;99535.91;5073757;28;20054;-24
2024/01/12 02:30:36;;;;;;;9.20;4.43;;;;;;;0.75;54.60;99527.16;5073479;28;20036;-24
2024/01/12 02:33:08;;;;;;;8.65;4.72;;;;;;;0.57;57.13;99532.34;5073407;28;20028;-24
2024/01/12 02:35:33;;;;;;;8.65;4.70;;;;;;;0.85;56.58;99513.19;5073477;28;20019;-26
2024/01/12 02:37:59;;;;;;;9.63;4.50;;;;;;;0.74;55.19;99522.06;5073418;28;20385;-25
2024/01/12 02:40:24;;;;;;;7.15;4.32;;;;;;;0.52;56.55;99516.25;5073359;28;20477;-24
2024/01/12 02:42:50;;;;;;;7.10;4.15;;;;;;;0.47;55.56;99517.66;5073433;28;20020;-25
2024/01/12 02:45:15;;;;;;;8.27;4.45;;;;;;;0.69;55.35;99519.06;5073725;28;20020;-24
2024/01/12 02:47:42;;;;;;;9.55;4.97;;;;;;;0.65;55.85;99518.53;5073217;28;20081;-25
2024/01/12 02:50:08;;;;;;;8.85;4.57;;;;;;;0.62;54.83;99516.19;5073365;28;20490;-36
2024/01/12 02:52:35;;;;;;;7.95;4.57;;;;;;;0.70;54.57;99524.16;5073194;28;20028;-37
2024/01/12 02:55:05;;;;;;;7.07;4.25;;;;;;;0.25;54.63;99510.94;5073366;28;20028;-38
2024/01/12 02:57:33;;;;;;;;;;;;;;;0.34;54.98;99518.81;5073587;28;20165;-38
2024/01/12 02:59:58;;;;;;;6.53;4.22;;;;;;;0.71;53.53;99515.34;5072958;28;19916;-37
2024/01/12 03:02:24;;;;;;;10.65;4.30;;;;;;;0.52;53.19;99515.44;5072697;28;20020;-38
2024/01/12 03:04:49;;;;;;;10.75;4.38;;;;;;;0.80;52.01;99507.56;5072887;28;20024;-39
2024/01/12 03:07:15;;;;;;;8.40;4.00;;;;;;;0.61;51.31;99509.31;5072775;28;20033;-38
2024/01/12 03:09:40;;;;;;;8.60;3.72;;;;;;;0.28;51.45;99510.69;5072903;28;20024;-39
2024/01/12 03:12:06;;;;;;;10.10;4.22;;;;;;;0.27;52.42;99509.88;5072882;28;20027;-39
2024/01/12 03:14:31;;;;;;;8.02;3.85;;;;;;;0.36;51.64;99511.63;5072609;28;20188;-38
2024/01/12 03:16:57;;;;;;;6.55;3.88;;;;;;;0.19;52.07;99514.97;5072532;28;20048;-37
2024/01/12 03:19:22;;;;;;;8.05;4.03;;;;;;;0.16;52.64;99520.50;5072606;28;20122;-37
2024/01/12 03:21:47;;;;;;;9.02;4.38;;;;;;;0.43;51.86;99522.34;5072570;28;20528;-39
2024/01/12 03:24:13;;;;;;;7.43;3.80;;;;;;;0.42;51.24;99514.63;5072294;28;20028;-36
2024/01/12 03:26:38;;;;;;;7.65;3.53;;;;;;;0.55;49.96;99504.66;5072138;28;20027;-37
2024/01/12 03:29:04;;;;;;;9.05;4.85;;;;;;;0.56;50.46;99506.31;5072140;28;20109;-39
2024/01/12 03:31:29;;;;;;;7.78;4.10;;;;;;;0.29;50.91;99505.31;5071934;28;20025;-39
2024/01/12 03:33:55;;;;;;;8.45;4.22;;;;;;;0.59;49.84;99511.25;5071679;28;20106;-38
2024/01/12 03:36:22;;;;;;;6.75;3.80;;;;;;;0.22;49.85;99500.78;5072344;28;20094;-39
2024/01/12 03:38:48;;;;;;;9.35;4.78;;;;;;;0.54;50.34;99514.31;5072213;28;20510;-38
2024/01/12 03:41:14;;;;;;;7.78;4.15;;;;;;;0.08;50.10;99513.38;5072670;28;20175;-38
2024/01/12 03:43:39;;;;;;;8.40;4.40;;;;;;;0.28;49.81;99529.81;5072596;28;20513;-37
2024/01/12 03:46:05;;;;;;;7.55;4.03;;;;;;;0.25;49.61;99530.13;5072040;28;20473;-38
2024/01/12 03:48:30;;;;;;;7.47;4.32;;;;;;;0.32;49.27;99525.13;5071994;28;20024;-39
2024/01/12 03:50:56;;;;;;;9.35;4.30;;;;;;;0.12;49.76;99529.59;5072083;28;20094;-39
2024/01/12 03:53:21;;;;;;;9.02;3.95;;;;;;;0.26;50.10;99530.94;5072186;28;20052;-36
2024/01/12 03:55:47;;;;;;;8.45;4.32;;;;;;;0.25;49.12;99529.28;5072128;28;20035;-37
2024/01/12 03:58:12;;;;;;;8.63;4.93;;;;;;;0.08;49.64;99534.28;5072062;28;20691;-36
2024/01/12 04:00:37;;;;;;;9.40;4.47;;;;;;;0.16;48.66;99546.69;5071979;28;20038;-38
2024/01/12 04:03:03;;;;;;;10.75;4.75;;;;;;;0.14;49.25;99552.03;5071790;28;20485;-37
2024/01/12 04:05:28;;;;;;;8.52;4.63;;;;;;;-0.15;49.13;99546.03;5071811;28;20044;-39
2024/01/12 04:07:54;;;;;;;9.90;4.70;;;;;;;-0.11;49.31;99561.31;5071384;28;20016;-40
2024/01/12 04:10:19;;;;;;;6.85;3.70;;;;;;;0.03;48.74;99557.44;5072128;28;20032;-25
2024/01/12 04:12:45;;;;;;;9.27;4.47;;;;;;;-0.15;49.48;99562.56;5072228;28;20028;-36
2024/01/12 04:15:11;;;;;;;11.02;5.03;;;;;;;-0.24;49.66;99563.38;5072024;28;20025;-40
2024/01/12 04:17:37;;;;;;;9.63;4.85;;;;;;;-0.23;49.57;99554.56;5071427;28;20039;-30
2024/01/12 04:20:03;;;;;;;8.88;4.68;;;;;;;-0.21;48.89;99552.63;5071348;28;20028;-26
2024/01/12 04:22:29;;;;;;;10.73;5.50;;;;;;;0.10;48.59;99555.09;5071084;28;20451;-39
2024/01/12 04:24:55;;;;;;;10.40;5.07;;;;;;;0.22;48.09;99551.34;5071506;28;20035;-39
2024/01/12 04:27:21;;;;;;;11.38;5.45;;;;;;;0.13;47.68;99562.66;5071310;28;20020;-38
2024/01/12 04:29:46;;;;;;;6.40;4.00;;;;;;;-0.10;47.83;99551.66;5070660;28;20447;-39
2024/01/12 04:32:11;;;;;;;8.77;4.55;;;;;;;-0.07;48.04;99543.56;5070589;28;20025;-38
2024/01/12 04:34:37;;;;;;;8.45;4.40;;;;;;;0.02;47.66;99560.19;5070738;28;20020;-39
2024/01/12 04:37:03;;;;;;;7.63;4.47;;;;;;;-0.01;47.37;99569.16;5070987;28;20032;-37
2024/01/12 04:39:28;;;;;;;9.25;4.75;;;;;;;0.10;47.61;99562.94;5070920;28;20524;-37
2024/01/12 04:41:54;;;;;;;9.80;4.90;;;;;;;-0.17;47.57;99561.03;5070656;28;20111;-39
2024/01/12 04:44:19;;;;;;;13.60;4.70;;;;;;;0.02;47.05;99570.66;5068629;28;20052;-38
2024/01/12 04:46:45;;;;;;;10.02;4.72;;;;;;;0.12;47.22;99566.25;5070252;28;20017;-38
2024/01/12 04:49:10;;;;;;;8.07;4.20;;;;;;;-0.03;46.69;99571.91;5070536;28;20021;-35
2024/01/12 04:51:35;;;;;;;8.27;4.63;;;;;;;-0.11;47.12;99569.16;5070246;28;20077;-35
2024/01/12 04:54:01;;;;;;;9.25;4.93;;;;;;;-0.24;47.44;99579.09;5070971;28;20056;-37
2024/01/12 04:56:27;;;;;;;8.85;4.95;;;;;;;0.19;47.39;99572.53;5070854;28;20111;-39
2024/01/12 04:58:52;;;;;;;8.80;4.90;;;;;;;0.22;46.81;99576.69;5070373;28;20130;-38
2024/01/12 05:01:18;;;;;;;13.80;5.10;;;;;;;0.34;46.37;99565.94;5071024;28;20078;-36
2024/01/12 05:03:43;;;;;;;6.43;4.00;;;;;;;0.21;46.83;99578.50;5071215;28;20020;-39
2024/01/12 05:06:09;;;;;;;9.23;4.70;;;;;;;0.02;47.65;99583.72;5071141;28;20185;-39
2024/01/12 05:08:36;;;;;;;8.27;4.82;;;;;;;0.45;46.88;99579.81;5071062;28;20443;-36
2024/01/12 05:11:02;;;;;;;13.15;5.35;;;;;;;0.23;47.36;99578.31;5070993;28;20031;-40
2024/01/12 05:13:28;;;;;;;9.82;5.03;;;;;;;0.52;46.42;99593.97;5070998;28;20055;-40
2024/01/12 05:15:53;;;;;;;14.10;4.78;;;;;;;0.66;45.77;99590.06;5070991;28;20075;-40
2024/01/12 05:18:18;;;;;;;11.18;4.82;;;;;;;0.45;46.78;99591.09;5071476;28;20028;-37
2024/01/12 05:20:44;;;;;;;10.85;5.07;;;;;;;0.35;46.49;99578.03;5070703;28;20017;-38
2024/01/12 05:23:09;;;;;;;10.07;5.00;;;;;;;0.17;46.85;99579.72;5070977;28;20416;-40
2024/01/12 05:25:35;;;;;;;8.55;4.35;;;;;;;0.28;47.16;99582.19;5070805;28;20563;-37
2024/01/12 05:28:00;;;;;;;9.38;5.00;;;;;;;0.35;47.43;99585.88;5070619;28;20104;-38
2024/01/12 05:30:26;;;;;;;15.30;5.15;;;;;;;0.27;47.65;99575.31;5070599;28;20081;-39
2024/01/12 05:32:51;;;;;;;8.35;4.70;;;;;;;0.34;47.34;99586.88;5071076;28;20465;-39
2024/01/12 05:35:16;;;;;;;9.23;4.35;;;;;;;0.56;48.22;99585.69;5070857;28;20100;-40
2024/01/12 05:37:42;;;;;;;8.10;4.38;;;;;;;0.26;48.08;99578.88;5070330;28;20036;-41
2024/01/12 05:40:08;;;;;;;9.82;5.57;;;;;;;0.19;48.81;99581.25;5070717;28;20025;-41
2024/01/12 05:42:33;;;;;;;8.88;5.03;;;;;;;0.25;48.87;99579.00;5071501;28;20134;-40
2024/01/12 05:44:59;;;;;;;8.00;3.80;;;;;;;-0.11;48.93;99587.47;5070936;28;20400;-41
2024/01/12 05:47:24;;;;;;;9.20;4.93;;;;;;;0.05;48.71;99580.84;5070711;28;20021;-40
2024/01/12 05:49:50;;;;;;;8.15;4.60;;;;;;;0.14;48.83;99587.88;5070581;28;20044;-39
2024/01/12 05:52:15;;;;;;;9.70;4.97;;;;;;;0.40;48.03;99595.94;5069990;28;20526;-42
2024/01/12 05:54:40;;;;;;;8.68;4.93;;;;;;;0.33;48.37;99589.63;5070891;28;20395;-40
2024/01/12 05:57:06;;;;;;;10.10;4.47;;;;;;;0.49;47.51;99602.94;5072741;28;20071;-41
2024/01/12 05:59:32;;;;;;;8.90;4.40;;;;;;;0.56;47.24;99600.59;5074433;28;20532;-38
2024/01/12 06:01:58;;;;;;;7.97;4.20;;;;;;;0.64;46.21;99599.88;5073784;28;20515;-41
2024/01/12 06:04:24;;;;;;;17.65;4.07;;;;;;;0.28;46.29;99600.50;5074359;28;20029;-39
2024/01/12 06:06:49;;;;;;;12.55;5.00;;;;;;;0.61;44.96;99608.00;5073993;28;20048;-39
2024/01/12 06:09:15;;;;;;;9.85;4.90;;;;;;;0.33;45.83;99605.31;5074386;28;20029;-41
2024/01/12 06:11:44;;;;;;;8.10;4.30;;;;;;;0.28;45.72;99607.53;5074605;28;20407;-38
2024/01/12 06:14:10;;;;;;;8.00;4.40;;;;;;;0.61;45.33;99619.31;5074731;28;20400;-41
2024/01/12 06:16:35;;;;;;;8.35;4.68;;;;;;;0.90;44.11;99619.22;5073677;28;20056;-37
2024/01/12 06:19:01;;;;;;;11.10;4.68;;;;;;;0.99;43.69;99635.88;5073554;28;20020;-40
2024/01/12 06:21:26;;;;;;;6.97;3.75;;;;;;;0.69;44.26;99642.19;5074199;28;20063;-40
2024/01/12 06:23:52;;;;;;;10.02;4.75;;;;;;;1.04;43.16;99631.00;5073643;28;20411;-39
2024/01/12 06:26:17;;;;;;;9.23;4.60;;;;;;;1.12;43.17;99633.75;5073928;28;20099;-38
2024/01/12 06:28:43;;;;;;;9.00;4.97;;;;;;;1.41;42.30;99630.16;5073905;28;20499;-39
2024/01/12 06:31:08;;;;;;;7.10;3.78;;;;;;;1.02;43.35;99635.56;5073412;28;20028;-42
2024/01/12 06:33:34;;;;;;;7.75;3.97;;;;;;;0.77;43.86;99637.06;5073350;28;20094;-37
2024/01/12 06:36:01;;;;;;;8.57;4.95;;;;;;;0.91;43.93;99651.47;5073172;28;20035;-38
2024/01/12 06:38:27;;;;;;;9.27;5.03;;;;;;;1.15;44.07;99645.72;5073020;28;20017;-39
2024/01/12 06:40:52;;;;;;;9.18;5.22;;;;;;;1.55;43.06;99666.34;5073311;28;20116;-39
2024/01/12 06:43:18;;;;;;;10.05;5.15;;;;;;;1.89;43.41;99667.53;5073599;28;20055;-42
2024/01/12 06:45:43;;;;;;;11.73;5.75;;;;;;;2.01;42.99;99676.81;5073701;28;20081;-41
2024/01/12 06:48:10;;;;;;;9.82;5.35;;;;;;;2.27;42.56;99665.59;5073016;28;20099;-40
2024/01/12 06:50:35;;;;;;;6.82;4.10;;;;;;;2.31;42.12;99678.25;5073275;28;20025;-40
2024/01/12 06:53:04;;;;;;;10.55;5.30;;;;;;;2.16;42.48;99682.38;5073307;28;20028;-42
2024/01/12 06:55:29;;;;;;;9.98;5.45;;;;;;;2.28;42.77;99690.84;5072951;28;20085;-41
2024/01/12 06:57:55;;;;;;;13.18;4.72;;;;;;;2.60;41.07;99694.72;5073231;28;20527;-28
2024/01/12 07:00:20;;;;;;;10.00;4.80;;;;;;;2.43;41.88;99688.50;5073349;28;20059;-27
2024/01/12 07:02:46;;;;;;;12.23;5.93;;;;;;;2.72;41.59;99702.22;5072937;28;20020;-26
2024/01/12 07:05:13;;;;;;;10.75;5.57;;;;;;;2.77;41.19;99695.66;5073421;28;20073;-26
2024/01/12 07:07:41;;;;;;;11.73;5.90;;;;;;;3.18;40.92;99699.38;5071566;28;20028;-27
2024/01/12 07:10:08;;;;;;;10.93;6.18;;;;;;;3.08;40.35;99709.97;5072612;28;20034;-28
2024/01/12 07:12:33;;;;;;;9.57;5.40;;;;;;;3.35;39.98;99726.56;5072691;28;20020;-26
2024/01/12 07:14:59;;;;;;;10.95;5.35;;;;;;;3.59;39.66;99725.03;5072651;28;20035;-26
2024/01/12 07:17:24;;;;;;;8.77;5.50;;;;;;;3.41;39.93;99723.31;5073021;28;20490;-27
2024/01/12 07:19:49;;;;;;;10.70;5.45;;;;;;;4.06;39.03;99727.97;5072762;28;20024;-30
2024/01/12 07:22:15;;;;;;;9.40;5.93;;;;;;;4.38;38.77;99728.16;5072573;28;20025;-27
2024/01/12 07:24:40;;;;;;;9.90;5.32;;;;;;;4.05;39.04;99728.94;5072431;28;20025;-27
2024/01/12 07:27:06;;;;;;;12.73;6.43;;;;;;;4.67;38.15;99727.69;5072343;28;20035;-28
2024/01/12 07:29:32;;;;;;;11.23;5.65;;;;;;;4.68;37.87;99716.97;5073160;28;20031;-26
2024/01/12 07:31:58;;;;;;;14.55;6.25;;;;;;;4.64;38.22;99714.81;5072576;28;20017;-26
2024/01/12 07:34:23;;;;;;;11.15;5.80;;;;;;;4.54;37.66;99720.25;5072640;28;20403;-27
2024/01/12 07:36:49;;;;;;;11.15;5.97;;;;;;;4.24;38.32;99716.47;5072415;28;20461;-28
2024/01/12 07:39:14;;;;;;;9.30;5.60;;;;;;;4.00;38.49;99707.53;5072359;28;20071;-26
2024/01/12 07:41:42;;;;;;;13.20;5.75;;;;;;;3.76;38.81;99710.94;5072743;28;20027;-27
2024/01/12 07:44:07;;;;;;;14.65;6.28;;;;;;;3.75;38.54;99719.81;5072498;28;20031;-27
2024/01/12 07:46:33;;;;;;;14.10;6.25;;;;;;;4.03;38.62;99722.19;5072387;28;20020;-27
2024/01/12 07:48:59;;;;;;;11.98;5.50;;;;;;;4.16;38.32;99722.53;5071067;28;20044;-27
2024/01/12 07:51:25;;;;;;;12.32;6.38;;;;;;;4.07;38.33;99723.50;5072447;28;20447;-27
2024/01/12 07:53:51;;;;;;;14.50;6.07;;;;;;;4.19;38.25;99721.38;5071845;28;20027;-28
2024/01/12 07:56:16;;;;;;;11.52;6.30;;;;;;;3.57;39.69;99740.97;5072266;28;20466;-27
2024/01/12 07:58:42;;;;;;;14.07;6.20;;;;;;;3.68;39.43;99745.94;5072022;28;20490;-26
2024/01/12 08:01:14;;;;;;;11.15;6.00;;;;;;;3.44;39.77;99744.03;5072084;28;20546;-27
2024/01/12 08:03:43;;;;;;;13.35;7.43;;;;;;;3.37;39.95;99760.59;5072268;28;20119;-26
2024/01/12 08:06:09;;;;;;;13.93;5.97;;;;;;;2.95;40.55;99759.50;5071958;28;20063;-27
2024/01/12 08:08:34;;;;;;;10.50;6.15;;;;;;;3.64;39.97;99759.59;5071698;28;20056;-28
2024/01/12 08:11:00;;;;;;;10.43;6.05;;;;;;;4.08;39.23;99764.69;5072331;28;20020;-27
2024/01/12 08:13:25;;;;;;;14.25;5.68;;;;;;;4.09;38.88;99763.66;5071647;28;20480;-26
2024/01/12 08:15:51;;;;;;;9.85;5.25;;;;;;;4.01;38.79;99761.03;5071534;28;20149;-28
2024/01/12 08:18:18;;;;;;;11.10;5.97;;;;;;;4.25;38.97;99779.53;5071967;28;20020;-27
2024/01/12 08:20:44;;;;;;;9.13;5.55;;;;;;;4.16;39.22;99769.94;5071320;28;20480;-27
2024/01/12 08:23:09;;;;;;;12.88;6.10;;;;;;;4.22;38.87;99779.84;5071803;28;20045;-27
2024/01/12 08:25:35;;;;;;;12.43;6.65;;;;;;;4.84;38.34;99789.97;5071639;28;20105;-28
2024/01/12 08:28:00;;;;;;;10.73;5.57;;;;;;;4.76;37.78;99789.97;5071471;28;20112;-27
2024/01/12 08:30:25;;;;;;;11.18;5.75;;;;;;;4.53;37.71;99795.03;5071255;28;20044;-26
2024/01/12 08:32:51;;;;;;;10.52;5.88;;;;;;;4.22;38.54;99798.28;5071413;28;20025;-26
2024/01/12 08:35:16;;;;;;;8.77;4.97;;;;;;;4.29;38.21;99795.84;5071363;28;20407;-27
2024/01/12 08:37:41;;;;;;;10.18;5.32;;;;;;;5.30;36.95;99789.41;5071397;28;20029;-27
2024/01/12 08:40:07;;;;;;;8.07;5.00;;;;;;;5.27;36.73;99789.75;5071479;28;20043;-28
2024/01/12 08:42:33;;;;;;;10.48;5.32;;;;;;;5.52;37.12;99802.88;5071267;28;20028;-27
2024/01/12 08:44:58;;;;;;;9.07;5.00;;;;;;;5.27;37.15;99795.88;5071149;28;20020;-27
2024/01/12 08:47:23;;;;;;;9.00;5.53;;;;;;;5.71;35.75;99791.94;5071187;28;20403;-28
2024/01/12 08:49:50;;;;;;;9.13;4.97;;;;;;;5.87;35.71;99802.44;5071011;28;20024;-28
2024/01/12 08:52:16;;;;;;;11.68;5.22;;;;;;;6.23;35.18;99799.34;5071189;28;20074;-26
2024/01/12 08:54:43;;;;;;;8.98;5.10;;;;;;;6.35;35.13;99797.13;5070853;28;20032;-27
2024/01/12 08:57:08;;;;;;;9.80;5.30;;;;;;;6.69;34.31;99806.47;5071176;28;20027;-28
2024/01/12 08:59:34;;;;;;;10.25;5.40;;;;;;;6.32;34.65;99800.13;5071054;28;20025;-29
2024/01/12 09:01:59;;;;;;;9.52;5.18;;;;;;;6.45;34.72;99794.25;5070801;28;20027;-27
2024/01/12 09:04:25;;;;;;;9.82;5.47;;;;;;;6.27;34.74;99802.47;5070894;28;20123;-28
2024/01/12 09:06:50;;;;;;;10.55;5.88;;;;;;;6.23;35.00;99807.25;5071120;28;20017;-27
2024/01/12 09:09:16;;;;;;;8.52;5.30;;;;;;;6.22;35.71;99810.06;5070842;28;20400;-28
2024/01/12 09:11:42;;;;;;;9.63;4.93;;;;;;;5.78;35.75;99815.84;5070857;28;20074;-27
2024/01/12 09:14:07;;;;;;;8.65;5.03;;;;;;;5.94;35.68;99814.97;5070930;28;20036;-28
2024/01/12 09:16:33;;;;;;;11.52;5.72;;;;;;;6.21;35.22;99833.03;5070919;28;20135;-27
2024/01/12 09:18:58;;;;;;;9.15;4.93;;;;;;;5.54;35.27;99824.66;5071395;28;20029;-27
2024/01/12 09:21:24;;;;;;;9.95;5.50;;;;;;;5.81;35.51;99824.25;5070790;28;20042;-27
2024/01/12 09:23:49;;;;;;;8.75;5.07;;;;;;;6.07;35.55;99821.41;5070951;28;20033;-27
2024/01/12 09:26:15;;;;;;;9.70;5.47;;;;;;;6.28;35.49;99825.22;5070903;28;20028;-28
2024/01/12 09:28:41;;;;;;;9.10;5.32;;;;;;;6.07;35.41;99820.53;5070304;28;20381;-27
2024/01/12 09:31:08;;;;;;;9.93;5.78;;;;;;;6.72;34.65;99815.88;5069888;28;20085;-28
2024/01/12 09:33:33;;;;;;;10.77;6.13;;;;;;;6.26;34.87;99814.84;5070820;28;20024;-27
2024/01/12 09:35:58;;;;;;;11.43;5.32;;;;;;;6.33;35.06;99816.81;5070489;28;20047;-26
2024/01/12 09:38:24;;;;;;;10.05;5.78;;;;;;;6.40;34.52;99815.13;5070791;28;20477;-29
2024/01/12 09:40:49;;;;;;;12.10;5.78;;;;;;;6.22;35.39;99818.81;5070741;28;20416;-31
2024/01/12 09:43:16;;;;;;;12.20;6.80;;;;;;;5.82;35.90;99811.88;5070986;28;20055;-27
2024/01/12 09:45:44;;;;;;;11.63;5.88;;;;;;;6.07;35.73;99812.63;5070619;28;20113;-27
2024/01/12 09:48:10;;;;;;;11.10;6.13;;;;;;;5.99;35.69;99815.31;5070573;28;20116;-29
2024/01/12 09:50:35;;;;;;;12.63;6.05;;;;;;;6.19;35.96;99823.66;5070269;28;20103;-28
2024/01/12 09:53:02;;;;;;;10.15;5.68;;;;;;;5.88;35.98;99824.41;5070217;28;20034;-27
2024/01/12 09:55:27;;;;;;;9.05;4.97;;;;;;;6.04;35.41;99818.28;5070096;28;20536;-26
2024/01/12 09:57:52;;;;;;;11.30;5.43;;;;;;;6.04;35.87;99816.44;5070290;28;20025;-31
2024/01/12 10:00:21;;;;;;;12.32;5.45;;;;;;;5.73;35.91;99821.66;5070446;28;20029;-27
2024/01/12 10:02:47;;;;;;;10.00;5.78;;;;;;;6.02;35.82;99820.25;5070188;28;20143;-27
2024/01/12 10:05:12;;;;;;;11.48;5.82;;;;;;;6.81;35.23;99833.34;5070336;28;20518;-28
2024/01/12 10:07:38;;;;;;;10.70;5.20;;;;;;;6.60;34.84;99823.41;5070162;28;20029;-28
2024/01/12 10:10:05;;;;;;;9.07;5.30;;;;;;;6.42;34.92;99826.34;5070364;28;20028;-30
2024/01/12 10:12:31;;;;;;;10.18;5.57;;;;;;;6.30;35.88;99823.22;5070804;28;20079;-28
2024/01/12 10:15:14;;;;;;;11.43;6.25;;;;;;;6.81;35.12;99838.63;5070715;28;20457;-29
2024/01/12 10:17:39;;;;;;;10.50;5.60;;;;;;;6.90;35.76;99827.00;5070433;28;20040;-28
2024/01/12 10:20:06;;;;;;;12.60;6.00;;;;;;;6.62;35.21;99832.78;5070324;28;20032;-28
2024/01/12 10:22:31;;;;;;;17.60;6.05;;;;;;;6.80;35.58;99840.47;5070347;28;20024;-29
2024/01/12 10:25:01;;;;;;;11.20;5.85;;;;;;;6.46;35.81;99822.34;5070516;28;20028;-28
2024/01/12 10:27:27;;;;;;;11.38;5.80;;;;;;;6.74;35.82;99830.59;5070107;28;20025;-27
2024/01/12 10:29:53;;;;;;;13.10;6.15;;;;;;;6.37;36.40;99812.81;5069998;28;20020;-28
2024/01/12 10:32:19;;;;;;;11.63;5.47;;;;;;;6.21;36.17;99834.88;5070349;28;20036;-30
2024/01/12 10:34:46;;;;;;;13.30;6.25;;;;;;;6.58;35.31;99834.16;5070040;28;20024;-27
2024/01/12 10:37:17;;;;;;;10.52;5.57;;;;;;;6.77;35.63;99821.47;5070213;28;20021;-28
2024/01/12 10:39:46;;;;;;;11.07;6.25;;;;;;;6.50;36.22;99822.81;5070207;28;20020;-27
2024/01/12 10:42:13;;;;;;;11.07;6.10;;;;;;;7.20;35.65;99821.78;5070011;28;20048;-27
2024/01/12 10:44:40;;;;;;;12.45;5.90;;;;;;;7.07;35.77;99822.38;5072949;28;20122;-28
2024/01/12 10:47:10;;;;;;;11.20;6.10;;;;;;;7.33;35.28;99827.28;5073475;28;20020;-27
2024/01/12 10:49:44;;;;;;;12.27;6.28;;;;;;;7.11;35.07;99831.59;5068635;28;20128;-28
2024/01/12 10:52:25;;;;;;;11.30;6.10;;;;;;;7.06;35.05;99812.78;5053800;28;20040;-27
2024/01/12 10:54:52;;;;;;;10.45;5.30;;;;;;;7.11;35.09;99825.50;5053878;28;20388;-27
2024/01/12 10:57:18;;;;;;;10.45;5.70;;;;;;;7.05;34.93;99827.03;5052967;28;20106;-28
2024/01/12 10:59:44;;;;;;;11.70;5.05;;;;;;;7.14;35.25;99822.47;5053600;28;20485;-26
2024/01/12 11:02:12;;;;;;;10.55;5.32;;;;;;;6.77;35.45;99818.81;5051931;28;20082;-27
2024/01/12 11:04:39;;;;;;;9.05;5.00;;;;;;;7.10;34.76;99813.25;5052416;28;20473;-28
2024/01/12 11:07:06;;;;;;;10.27;5.72;;;;;;;7.54;35.32;99807.19;5052733;28;20025;-28
2024/01/12 11:09:32;;;;;;;11.73;5.80;;;;;;;7.42;34.59;99818.25;5052448;28;20120;-28
2024/01/12 11:12:03;;;;;;;11.32;5.72;;;;;;;7.13;35.28;99816.38;5052789;28;20059;-28
2024/01/12 11:14:29;;;;;;;11.73;5.47;;;;;;;7.05;35.65;99816.44;5052935;28;20561;-28
2024/01/12 11:16:55;;;;;;;10.20;5.43;;;;;;;7.50;35.38;99817.34;5052956;28;20045;-28
2024/01/12 11:19:21;;;;;;;10.52;5.90;;;;;;;7.57;34.65;99812.97;5053218;28;20027;-27
2024/01/12 11:21:46;;;;;;;10.35;5.45;;;;;;;7.43;34.86;99811.94;5052847;28;20025;-27
2024/01/12 11:24:12;;;;;;;8.95;5.10;;;;;;;7.02;35.54;99817.63;5052646;28;20048;-28
2024/01/12 11:26:38;;;;;;;9.88;5.80;;;;;;;7.44;34.81;99816.25;5052576;28;20406;-28
2024/01/12 11:29:04;;;;;;;9.35;5.38;;;;;;;7.51;34.91;99807.59;5052808;28;20036;-28
2024/01/12 11:31:29;;;;;;;10.15;5.72;;;;;;;7.58;34.62;99805.84;5051214;28;20033;-27